Time;durP1;ratioP1;P1;durP2;ratioP2;P2;SDS_P1;SDS_P2;PMS_P1;PMS_P2;Temp;Humidity;BMP_temperature;BMP_pressure;BME280_temperature;BME280_humidity;BME280_pressure;Samples;Min_cycle;Max_cycle;Signal;HPM_P1;HPM_P2
2023/10/22 00:00:13;;;;;;;32.85;19.02;;;;;;;;;;6168758;23;20020;-77
2023/10/22 00:02:41;;;;;;;36.65;17.95;;;;;;;;;;6151606;23;20017;-77
2023/10/22 00:05:07;;;;;;;23.38;15.80;;;;;;;;;;6159756;23;20014;-77
2023/10/22 00:07:33;;;;;;;32.83;19.70;;;;;;;;;;6153724;23;20493;-77
2023/10/22 00:09:59;;;;;;;31.23;19.38;;;;;;;;;;6153216;23;20013;-77
2023/10/22 00:12:25;;;;;;;29.55;19.80;;;;;;;;;;6127506;23;20396;-78
2023/10/22 00:14:52;;;;;;;34.65;18.67;;;;;;;;;;6153279;23;20525;-77
2023/10/22 00:17:17;;;;;;;35.72;18.92;;;;;;;;;;6152880;23;20021;-77
2023/10/22 00:19:46;;;;;;;42.35;20.98;;;;;;;;;;6153306;23;20009;-76
2023/10/22 00:22:14;;;;;;;57.47;22.42;;;;;;;;;;6152441;23;20064;-77
2023/10/22 00:24:41;;;;;;;33.90;20.08;;;;;;;;;;6153078;23;20046;-77
2023/10/22 00:27:07;;;;;;;26.67;17.88;;;;;;;;;;6153161;23;20108;-77
2023/10/22 00:29:32;;;;;;;33.50;17.30;;;;;;;;;;6152976;23;20040;-77
2023/10/22 00:31:58;;;;;;;28.15;17.17;;;;;;;;;;6127128;23;20036;-77
2023/10/22 00:34:24;;;;;;;22.63;15.40;;;;;;;;;;6153087;23;20516;-77
2023/10/22 00:36:51;;;;;;;19.45;13.18;;;;;;;;;;6153081;23;20021;-78
2023/10/22 00:39:17;;;;;;;19.35;12.63;;;;;;;;;;6152538;23;20084;-77
2023/10/22 00:41:43;;;;;;;21.63;13.80;;;;;;;;;;6127159;23;20013;-76
2023/10/22 00:44:09;;;;;;;20.25;13.23;;;;;;;;;;6152846;23;20017;-77
2023/10/22 00:46:35;;;;;;;15.85;12.35;;;;;;;;;;6151855;23;20014;-77
2023/10/22 00:49:01;;;;;;;16.67;12.90;;;;;;;;;;6126643;23;20569;-78
2023/10/22 00:51:27;;;;;;;19.08;13.65;;;;;;;;;;6127042;23;20017;-77
2023/10/22 00:53:53;;;;;;;19.83;13.23;;;;;;;;;;6127108;23;20048;-77
2023/10/22 00:56:22;;;;;;;19.85;13.57;;;;;;;;;;6150798;23;20021;-77
2023/10/22 00:58:48;;;;;;;15.13;11.40;;;;;;;;;;6126609;23;20009;-76
2023/10/22 01:01:14;;;;;;;20.92;13.32;;;;;;;;;;6152582;23;20394;-77
2023/10/22 01:03:41;;;;;;;22.90;13.38;;;;;;;;;;6151283;23;20018;-77
2023/10/22 01:06:07;;;;;;;16.70;12.05;;;;;;;;;;6151156;23;20024;-77
2023/10/22 01:08:34;;;;;;;10.23;9.18;;;;;;;;;;6126726;23;20096;-75
2023/10/22 01:11:08;;;;;;;13.18;9.23;;;;;;;;;;6176197;23;20016;-77
2023/10/22 01:13:34;;;;;;;11.52;10.30;;;;;;;;;;6151080;23;20017;-76
2023/10/22 01:16:01;;;;;;;14.45;12.40;;;;;;;;;;6150832;23;20494;-78
2023/10/22 01:18:27;;;;;;;14.27;10.68;;;;;;;;;;6152399;23;20013;-76
2023/10/22 01:20:53;;;;;;;8.07;7.32;;;;;;;;;;6152729;23;20018;-76
2023/10/22 01:23:19;;;;;;;17.67;9.98;;;;;;;;;;6151912;23;20052;-77
2023/10/22 01:25:45;;;;;;;12.00;10.75;;;;;;;;;;6154538;23;20014;-76
2023/10/22 01:28:11;;;;;;;15.07;12.18;;;;;;;;;;6127133;23;20021;-76
2023/10/22 01:30:37;;;;;;;16.42;11.88;;;;;;;;;;6152531;23;20078;-76
2023/10/22 01:33:03;;;;;;;10.27;8.90;;;;;;;;;;6151889;23;20454;-77
2023/10/22 01:35:30;;;;;;;15.80;12.35;;;;;;;;;;6151135;23;20013;-76
2023/10/22 01:37:56;;;;;;;17.08;13.90;;;;;;;;;;6150875;23;20079;-77
2023/10/22 01:40:22;;;;;;;19.63;14.07;;;;;;;;;;6152078;23;20144;-77
2023/10/22 01:42:48;;;;;;;29.17;18.10;;;;;;;;;;6152481;23;20566;-77
2023/10/22 01:45:14;;;;;;;13.18;11.77;;;;;;;;;;6150540;23;20021;-77
2023/10/22 01:47:40;;;;;;;12.90;10.18;;;;;;;;;;6152509;23;20361;-76
2023/10/22 01:50:06;;;;;;;15.00;11.27;;;;;;;;;;6150426;23;20408;-76
2023/10/22 01:52:32;;;;;;;12.88;10.77;;;;;;;;;;6152442;23;20020;-77
2023/10/22 01:54:58;;;;;;;19.58;13.10;;;;;;;;;;6151898;23;20017;-77
2023/10/22 01:57:25;;;;;;;18.98;14.27;;;;;;;;;;6150774;23;20409;-77
2023/10/22 01:59:51;;;;;;;17.50;13.40;;;;;;;;;;6152470;23;20583;-76
2023/10/22 02:02:17;;;;;;;21.83;12.88;;;;;;;;;;6150269;23;20014;-76
2023/10/22 02:04:44;;;;;;;10.02;8.93;;;;;;;;;;6152211;23;20056;-77
2023/10/22 02:07:10;;;;;;;10.77;9.52;;;;;;;;;;6126064;23;20021;-76
2023/10/22 02:09:36;;;;;;;11.70;10.10;;;;;;;;;;6152282;23;20009;-77
2023/10/22 02:12:04;;;;;;;14.82;10.15;;;;;;;;;;6152995;23;20087;-78
2023/10/22 02:14:30;;;;;;;14.60;12.57;;;;;;;;;;6152846;23;20013;-76
2023/10/22 02:16:57;;;;;;;16.95;11.50;;;;;;;;;;6150827;23;20367;-76
2023/10/22 02:19:23;;;;;;;10.82;8.25;;;;;;;;;;6151731;23;20014;-75
2023/10/22 02:22:09;;;;;;;12.85;8.38;;;;;;;;;;6150514;23;20334;-74
2023/10/22 02:24:36;;;;;;;8.88;7.95;;;;;;;;;;6126239;23;20327;-76
2023/10/22 02:27:02;;;;;;;19.45;12.93;;;;;;;;;;6150576;23;20022;-77
2023/10/22 02:29:28;;;;;;;8.93;8.02;;;;;;;;;;6151803;23;20040;-76
2023/10/22 02:31:55;;;;;;;7.78;6.43;;;;;;;;;;6152213;23;20017;-76
2023/10/22 02:34:21;;;;;;;7.63;6.80;;;;;;;;;;6150221;23;20084;-77
2023/10/22 02:36:47;;;;;;;10.93;8.32;;;;;;;;;;6150822;23;20442;-78
2023/10/22 02:39:13;;;;;;;7.25;6.55;;;;;;;;;;6150105;23;20041;-77
2023/10/22 02:41:39;;;;;;;5.10;4.22;;;;;;;;;;6150943;23;20468;-78
2023/10/22 02:44:05;;;;;;;10.18;8.18;;;;;;;;;;6152974;23;20006;-77
2023/10/22 02:46:31;;;;;;;6.20;5.60;;;;;;;;;;6154092;23;20031;-76
2023/10/22 02:49:01;;;;;;;8.35;6.50;;;;;;;;;;6158720;23;20014;-77
2023/10/22 02:51:27;;;;;;;8.38;5.47;;;;;;;;;;6178801;23;20021;-76
2023/10/22 02:53:53;;;;;;;6.72;5.97;;;;;;;;;;6163408;23;20084;-77
2023/10/22 02:56:19;;;;;;;7.22;6.53;;;;;;;;;;6152628;23;20022;-77
2023/10/22 02:58:46;;;;;;;7.30;5.70;;;;;;;;;;6152954;23;20009;-77
2023/10/22 03:01:12;;;;;;;6.93;6.35;;;;;;;;;;6127660;23;20018;-76
2023/10/22 03:03:41;;;;;;;6.20;4.43;;;;;;;;;;6153035;23;20085;-78
2023/10/22 03:06:07;;;;;;;8.18;7.47;;;;;;;;;;6154367;23;20068;-76
2023/10/22 03:08:34;;;;;;;5.70;5.28;;;;;;;;;;6154011;23;20395;-76
2023/10/22 03:11:00;;;;;;;6.95;6.25;;;;;;;;;;6152686;23;20358;-77
2023/10/22 03:13:26;;;;;;;9.65;6.40;;;;;;;;;;6178219;23;20014;-77
2023/10/22 03:15:53;;;;;;;7.00;6.35;;;;;;;;;;6156240;23;20032;-77
2023/10/22 03:18:20;;;;;;;6.68;6.05;;;;;;;;;;6154606;23;20049;-80
2023/10/22 03:20:46;;;;;;;6.78;6.25;;;;;;;;;;6161196;23;20010;-76
2023/10/22 03:23:12;;;;;;;8.05;5.13;;;;;;;;;;6161699;23;20021;-76
2023/10/22 03:25:39;;;;;;;7.82;7.00;;;;;;;;;;6160279;23;20490;-79
2023/10/22 03:28:09;;;;;;;5.82;5.32;;;;;;;;;;6131673;23;20517;-78
2023/10/22 03:30:38;;;;;;;5.03;4.63;;;;;;;;;;6152253;23;20525;-77
2023/10/22 03:33:05;;;;;;;5.55;5.05;;;;;;;;;;6152146;23;20012;-77
2023/10/22 03:35:31;;;;;;;6.22;5.63;;;;;;;;;;6153611;23;20055;-76
2023/10/22 03:37:58;;;;;;;6.50;5.57;;;;;;;;;;6153828;23;20497;-77
2023/10/22 03:40:24;;;;;;;7.40;6.72;;;;;;;;;;6151833;23;20009;-76
2023/10/22 03:42:50;;;;;;;9.57;8.35;;;;;;;;;;6152319;23;20041;-75
2023/10/22 03:45:16;;;;;;;7.75;6.88;;;;;;;;;;6126927;23;20009;-77
2023/10/22 03:47:42;;;;;;;6.78;6.18;;;;;;;;;;6127691;23;20400;-76
2023/10/22 03:50:08;;;;;;;7.53;6.60;;;;;;;;;;6153564;23;20033;-76
2023/10/22 03:52:34;;;;;;;4.03;3.75;;;;;;;;;;6176420;23;20009;-76
2023/10/22 03:55:01;;;;;;;8.82;6.85;;;;;;;;;;6153490;23;20013;-76
2023/10/22 03:57:28;;;;;;;4.82;4.35;;;;;;;;;;6152630;23;20033;-76
2023/10/22 03:59:54;;;;;;;7.40;6.70;;;;;;;;;;6151925;23;20382;-77
2023/10/22 04:02:21;;;;;;;7.90;7.20;;;;;;;;;;6153139;23;20021;-76
2023/10/22 04:04:46;;;;;;;11.18;7.22;;;;;;;;;;6153362;23;20046;-76
2023/10/22 04:07:12;;;;;;;6.85;6.35;;;;;;;;;;6153087;23;20017;-76
2023/10/22 04:09:38;;;;;;;6.95;6.35;;;;;;;;;;6151520;23;20014;-76
2023/10/22 04:12:04;;;;;;;6.40;5.72;;;;;;;;;;6153268;23;20696;-75
2023/10/22 04:14:32;;;;;;;10.27;5.10;;;;;;;;;;6152906;23;20417;-76
2023/10/22 04:16:58;;;;;;;6.70;5.97;;;;;;;;;;6153264;23;20022;-75
2023/10/22 04:19:24;;;;;;;5.47;4.53;;;;;;;;;;6151416;23;20029;-76
2023/10/22 04:21:50;;;;;;;6.22;5.72;;;;;;;;;;6153208;23;20025;-75
2023/10/22 04:24:16;;;;;;;7.13;5.97;;;;;;;;;;6152803;23;20009;-76
2023/10/22 04:26:42;;;;;;;8.32;7.53;;;;;;;;;;6153246;23;20040;-76
2023/10/22 04:29:09;;;;;;;7.72;6.78;;;;;;;;;;6153068;23;20013;-74
2023/10/22 04:31:36;;;;;;;7.45;6.85;;;;;;;;;;6152861;23;20417;-77
2023/10/22 04:34:02;;;;;;;8.93;7.35;;;;;;;;;;6153056;23;20414;-77
2023/10/22 04:36:27;;;;;;;9.00;8.02;;;;;;;;;;6151260;23;20053;-78
2023/10/22 04:38:54;;;;;;;7.32;6.63;;;;;;;;;;6151303;23;20105;-77
2023/10/22 04:41:20;;;;;;;10.45;7.80;;;;;;;;;;6151272;23;20092;-78
2023/10/22 04:43:46;;;;;;;8.02;7.22;;;;;;;;;;6151661;23;20010;-76
2023/10/22 04:46:12;;;;;;;7.63;6.93;;;;;;;;;;6153022;23;20458;-76
2023/10/22 04:48:38;;;;;;;7.63;5.68;;;;;;;;;;6152850;23;20021;-78
2023/10/22 04:51:05;;;;;;;7.82;6.85;;;;;;;;;;6153038;23;20018;-79
2023/10/22 04:53:35;;;;;;;7.78;6.63;;;;;;;;;;6151213;23;20021;-78
2023/10/22 04:56:01;;;;;;;10.50;7.18;;;;;;;;;;6152397;23;20374;-78
2023/10/22 04:58:32;;;;;;;11.80;7.80;;;;;;;;;;6151068;23;20331;-79
2023/10/22 05:00:58;;;;;;;;;;;;;;;;;;6151666;23;20035;-78
2023/10/22 05:03:24;;;;;;;7.80;7.00;;;;;;;;;;6151369;23;20333;-76
2023/10/22 05:05:50;;;;;;;7.35;6.78;;;;;;;;;;6153083;23;20014;-76
2023/10/22 05:08:16;;;;;;;6.55;6.03;;;;;;;;;;6152477;23;20017;-77
2023/10/22 05:10:42;;;;;;;7.03;5.57;;;;;;;;;;6152951;23;20024;-77
2023/10/22 05:13:09;;;;;;;5.07;4.70;;;;;;;;;;6152974;23;20020;-77
2023/10/22 05:15:35;;;;;;;6.50;5.88;;;;;;;;;;6152179;23;20013;-76
2023/10/22 05:18:03;;;;;;;6.10;5.50;;;;;;;;;;6154401;23;20048;-76
2023/10/22 05:20:29;;;;;;;3.15;2.95;;;;;;;;;;6150937;23;20387;-75
2023/10/22 05:22:56;;;;;;;7.32;5.60;;;;;;;;;;6150989;23;20152;-76
2023/10/22 05:25:22;;;;;;;5.93;5.32;;;;;;;;;;6152202;23;20024;-76
2023/10/22 05:27:49;;;;;;;6.65;6.05;;;;;;;;;;6175983;23;20112;-76
2023/10/22 05:30:15;;;;;;;7.22;5.53;;;;;;;;;;6152756;23;20060;-76
2023/10/22 05:32:41;;;;;;;6.72;6.13;;;;;;;;;;6151740;23;20013;-76
2023/10/22 05:35:07;;;;;;;11.57;5.90;;;;;;;;;;6153153;23;20088;-76
2023/10/22 05:37:33;;;;;;;6.13;5.13;;;;;;;;;;6190818;23;20025;-76
2023/10/22 05:39:59;;;;;;;6.90;6.13;;;;;;;;;;6160886;23;20009;-76
2023/10/22 05:42:25;;;;;;;4.55;4.22;;;;;;;;;;6151190;23;20034;-76
2023/10/22 05:44:51;;;;;;;7.65;5.25;;;;;;;;;;6151037;23;20290;-76
2023/10/22 05:47:17;;;;;;;7.93;6.40;;;;;;;;;;6151481;23;20056;-76
2023/10/22 05:49:43;;;;;;;6.88;6.22;;;;;;;;;;6153121;23;20052;-76
2023/10/22 05:52:09;;;;;;;4.80;4.40;;;;;;;;;;6152343;23;20017;-75
2023/10/22 05:54:36;;;;;;;5.20;4.63;;;;;;;;;;6151754;23;20104;-76
2023/10/22 05:57:02;;;;;;;5.78;4.82;;;;;;;;;;6152344;23;20133;-76
2023/10/22 05:59:28;;;;;;;6.32;5.72;;;;;;;;;;6152210;23;20107;-76
2023/10/22 06:01:55;;;;;;;5.82;5.22;;;;;;;;;;6150735;23;20435;-75
2023/10/22 06:04:20;;;;;;;10.60;5.60;;;;;;;;;;6151473;23;20010;-74
2023/10/22 06:06:46;;;;;;;6.43;5.63;;;;;;;;;;6152466;23;20041;-75
2023/10/22 06:09:13;;;;;;;6.53;5.93;;;;;;;;;;6152233;23;20014;-74
2023/10/22 06:11:39;;;;;;;9.07;6.93;;;;;;;;;;6153086;23;20013;-74
2023/10/22 06:14:05;;;;;;;8.35;5.78;;;;;;;;;;6152419;23;20024;-74
2023/10/22 06:16:31;;;;;;;5.80;5.30;;;;;;;;;;6151564;23;20243;-75
2023/10/22 06:18:57;;;;;;;7.13;6.43;;;;;;;;;;6148074;23;20016;-74
2023/10/22 06:21:23;;;;;;;5.90;5.28;;;;;;;;;;6148979;23;21002;-73
2023/10/22 06:23:50;;;;;;;6.53;5.97;;;;;;;;;;6149321;23;20771;-73
2023/10/22 06:26:16;;;;;;;8.32;6.22;;;;;;;;;;6148985;23;20014;-73
2023/10/22 06:28:42;;;;;;;7.00;6.32;;;;;;;;;;6150077;23;20111;-73
2023/10/22 06:31:09;;;;;;;6.40;5.80;;;;;;;;;;6151387;23;20057;-73
2023/10/22 06:33:35;;;;;;;6.65;5.93;;;;;;;;;;6150868;23;20565;-76
2023/10/22 06:36:30;;;;;;;7.32;6.60;;;;;;;;;;6123672;23;20009;-72
2023/10/22 06:38:56;;;;;;;9.60;7.10;;;;;;;;;;6130771;23;20017;-72
2023/10/22 06:41:22;;;;;;;8.15;6.65;;;;;;;;;;6151027;23;20349;-73
2023/10/22 06:43:48;;;;;;;13.02;9.48;;;;;;;;;;6149329;23;20021;-73
2023/10/22 06:46:14;;;;;;;13.15;9.30;;;;;;;;;;6150858;23;20524;-73
2023/10/22 06:48:42;;;;;;;9.25;7.70;;;;;;;;;;6150882;23;20092;-73
2023/10/22 06:51:12;;;;;;;8.45;7.35;;;;;;;;;;6150213;23;20090;-74
2023/10/22 06:53:38;;;;;;;7.68;6.93;;;;;;;;;;6173939;23;20010;-72
2023/10/22 06:56:04;;;;;;;8.07;7.32;;;;;;;;;;6149082;23;20079;-72
2023/10/22 06:58:30;;;;;;;7.00;6.30;;;;;;;;;;6149715;23;20021;-72
2023/10/22 07:01:09;;;;;;;6.80;6.20;;;;;;;;;;6151266;23;20017;-74
2023/10/22 07:03:35;;;;;;;8.27;5.50;;;;;;;;;;6149255;23;20017;-73
2023/10/22 07:06:01;;;;;;;5.95;5.43;;;;;;;;;;6150942;23;20493;-74
2023/10/22 07:08:27;;;;;;;7.45;6.75;;;;;;;;;;6151198;23;20018;-75
2023/10/22 07:10:53;;;;;;;4.35;4.05;;;;;;;;;;6150528;23;20009;-75
2023/10/22 07:13:20;;;;;;;7.35;6.75;;;;;;;;;;6148767;23;20028;-72
2023/10/22 07:15:49;;;;;;;5.97;5.45;;;;;;;;;;6150833;23;20068;-72
2023/10/22 07:18:15;;;;;;;8.82;5.13;;;;;;;;;;6149849;23;20022;-73
2023/10/22 07:20:41;;;;;;;5.43;5.00;;;;;;;;;;6150634;23;20016;-73
2023/10/22 07:23:07;;;;;;;4.07;3.80;;;;;;;;;;6149411;23;20017;-73
2023/10/22 07:25:33;;;;;;;7.78;5.22;;;;;;;;;;6150691;23;20552;-73
2023/10/22 07:27:59;;;;;;;7.78;6.80;;;;;;;;;;6151202;23;20009;-75
2023/10/22 07:30:25;;;;;;;5.85;5.28;;;;;;;;;;6149392;23;20025;-75
2023/10/22 07:32:52;;;;;;;6.93;5.70;;;;;;;;;;6152106;23;20045;-73
2023/10/22 07:35:18;;;;;;;9.07;7.60;;;;;;;;;;6150228;23;20009;-74
2023/10/22 07:37:44;;;;;;;7.38;6.65;;;;;;;;;;6150602;23;20393;-75
2023/10/22 07:40:12;;;;;;;6.60;6.00;;;;;;;;;;6150806;23;20017;-74
2023/10/22 07:42:39;;;;;;;8.07;4.40;;;;;;;;;;6150841;23;20017;-76
2023/10/22 07:45:06;;;;;;;6.20;5.60;;;;;;;;;;6152274;23;20013;-78
2023/10/22 07:47:32;;;;;;;5.97;5.45;;;;;;;;;;6152040;23;20013;-78
2023/10/22 07:49:58;;;;;;;2.67;2.53;;;;;;;;;;6174468;23;20021;-77
2023/10/22 07:52:24;;;;;;;4.75;4.35;;;;;;;;;;6153548;23;20068;-76
2023/10/22 07:54:52;;;;;;;5.63;5.22;;;;;;;;;;6151175;23;20018;-77
2023/10/22 07:57:18;;;;;;;5.82;5.07;;;;;;;;;;6152887;23;20049;-75
2023/10/22 07:59:44;;;;;;;6.72;5.63;;;;;;;;;;6152955;23;20009;-73
2023/10/22 08:02:10;;;;;;;5.70;5.30;;;;;;;;;;6153284;23;20020;-74
2023/10/22 08:04:37;;;;;;;5.78;5.32;;;;;;;;;;6151954;23;20010;-74
2023/10/22 08:07:03;;;;;;;5.57;3.83;;;;;;;;;;6154046;23;20017;-75
2023/10/22 08:09:30;;;;;;;4.63;4.22;;;;;;;;;;6152960;23;20096;-77
2023/10/22 08:11:56;;;;;;;6.72;5.82;;;;;;;;;;6151523;23;20013;-77
2023/10/22 08:14:22;;;;;;;8.38;7.53;;;;;;;;;;6155567;23;20083;-75
2023/10/22 08:16:49;;;;;;;11.07;6.95;;;;;;;;;;6160110;23;20065;-74
2023/10/22 08:19:15;;;;;;;9.82;7.60;;;;;;;;;;6162420;23;20017;-76
2023/10/22 08:21:41;;;;;;;4.70;4.40;;;;;;;;;;6160841;23;20029;-75
2023/10/22 08:24:07;;;;;;;9.20;7.50;;;;;;;;;;6154879;23;20481;-77
2023/10/22 08:26:33;;;;;;;8.25;7.00;;;;;;;;;;6170233;23;20010;-76
2023/10/22 08:28:59;;;;;;;5.55;5.10;;;;;;;;;;6159685;23;20072;-76
2023/10/22 08:31:25;;;;;;;6.57;4.45;;;;;;;;;;6151230;23;20017;-76
2023/10/22 08:33:51;;;;;;;5.28;4.78;;;;;;;;;;6150635;23;20090;-77
2023/10/22 08:36:17;;;;;;;9.00;8.20;;;;;;;;;;6149301;23;20056;-77
2023/10/22 08:38:43;;;;;;;11.73;6.85;;;;;;;;;;6151382;23;20013;-77
2023/10/22 08:41:29;;;;;;;8.32;7.72;;;;;;;;;;6152100;23;20462;-76
2023/10/22 08:43:55;;;;;;;7.82;7.05;;;;;;;;;;6150368;23;20469;-77
2023/10/22 08:46:21;;;;;;;9.57;8.60;;;;;;;;;;6151434;23;20037;-77
2023/10/22 08:48:49;;;;;;;11.45;10.50;;;;;;;;;;6151227;23;20019;-76
2023/10/22 08:51:15;;;;;;;9.10;8.15;;;;;;;;;;6153126;23;20020;-77
2023/10/22 08:53:41;;;;;;;8.95;7.28;;;;;;;;;;6151300;23;20218;-76
2023/10/22 08:56:08;;;;;;;13.18;11.48;;;;;;;;;;6152326;23;20026;-77
2023/10/22 08:58:34;;;;;;;8.18;7.47;;;;;;;;;;6152474;23;20055;-77
2023/10/22 09:01:00;;;;;;;13.80;12.45;;;;;;;;;;6150861;23;20019;-76
2023/10/22 09:03:28;;;;;;;9.18;6.70;;;;;;;;;;6152775;23;20425;-77
2023/10/22 09:05:54;;;;;;;11.30;8.35;;;;;;;;;;6152549;23;20350;-77
2023/10/22 09:08:20;;;;;;;9.75;8.85;;;;;;;;;;6105845;23;20010;-77
2023/10/22 09:10:46;;;;;;;9.65;8.65;;;;;;;;;;6155457;23;20023;-76
2023/10/22 09:13:16;;;;;;;9.82;8.82;;;;;;;;;;6151440;23;20017;-77
2023/10/22 09:15:47;;;;;;;13.15;9.65;;;;;;;;;;6152272;23;20071;-78
2023/10/22 09:18:14;;;;;;;14.60;9.00;;;;;;;;;;6151779;23;20028;-78
2023/10/22 09:20:41;;;;;;;8.27;7.57;;;;;;;;;;6152818;23;20010;-76
2023/10/22 09:23:20;;;;;;;10.90;9.70;;;;;;;;;;6151118;23;20020;-77
2023/10/22 09:25:47;;;;;;;10.55;9.55;;;;;;;;;;6152854;23;20021;-77
2023/10/22 09:28:14;;;;;;;11.73;10.63;;;;;;;;;;6154348;23;20477;-77
2023/10/22 09:30:40;;;;;;;9.52;8.70;;;;;;;;;;6153496;23;20401;-76
2023/10/22 09:33:10;;;;;;;13.32;12.07;;;;;;;;;;6153483;23;20068;-77
2023/10/22 09:35:36;;;;;;;11.32;10.32;;;;;;;;;;6151848;23;20013;-76
2023/10/22 09:38:02;;;;;;;7.88;7.22;;;;;;;;;;6165731;23;20589;-83
2023/10/22 09:40:30;;;;;;;13.90;10.95;;;;;;;;;;6166053;23;20060;-82
2023/10/22 09:42:56;;;;;;;8.35;7.55;;;;;;;;;;6116909;23;20458;-81
2023/10/22 09:45:23;;;;;;;10.57;9.65;;;;;;;;;;6165628;23;20455;-81
2023/10/22 09:47:49;;;;;;;7.13;6.63;;;;;;;;;;6166217;23;20009;-83
2023/10/22 09:50:18;;;;;;;11.65;10.63;;;;;;;;;;6167243;23;20045;-83
2023/10/22 09:52:44;;;;;;;7.68;7.07;;;;;;;;;;6168071;23;20020;-83
2023/10/22 09:55:13;;;;;;;7.93;7.22;;;;;;;;;;6168288;23;20014;-81
2023/10/22 09:57:40;;;;;;;7.00;6.30;;;;;;;;;;6167175;23;20072;-82
2023/10/22 10:00:12;;;;;;;11.43;10.50;;;;;;;;;;6162641;23;20009;-81
2023/10/22 10:02:40;;;;;;;9.70;8.70;;;;;;;;;;6163743;23;20009;-82
2023/10/22 10:05:12;;;;;;;7.05;6.55;;;;;;;;;;6164941;23;20019;-83
2023/10/22 10:07:38;;;;;;;9.23;8.27;;;;;;;;;;6165839;23;20064;-83
2023/10/22 10:10:05;;;;;;;7.57;6.90;;;;;;;;;;6167207;23;20014;-82
2023/10/22 10:12:31;;;;;;;5.85;5.43;;;;;;;;;;6167515;23;20013;-81
2023/10/22 10:14:57;;;;;;;9.20;8.30;;;;;;;;;;6165712;23;20018;-82
2023/10/22 10:17:23;;;;;;;5.35;4.95;;;;;;;;;;6165598;23;20029;-83
2023/10/22 10:19:51;;;;;;;8.95;8.05;;;;;;;;;;6139435;23;20010;-82
2023/10/22 10:22:35;;;;;;;8.50;7.70;;;;;;;;;;6165219;23;20013;-85
2023/10/22 10:25:19;;;;;;;5.72;5.28;;;;;;;;;;6153139;23;20045;-77
2023/10/22 10:27:49;;;;;;;7.53;5.75;;;;;;;;;;6152100;23;20021;-78
2023/10/22 10:30:16;;;;;;;10.63;9.52;;;;;;;;;;6152559;23;20064;-77
2023/10/22 10:32:43;;;;;;;7.38;6.80;;;;;;;;;;6151800;23;20028;-77
2023/10/22 10:35:09;;;;;;;8.93;8.10;;;;;;;;;;6150800;23;20017;-78
2023/10/22 10:37:35;;;;;;;11.43;10.25;;;;;;;;;;6151925;23;20022;-78
2023/10/22 10:40:04;;;;;;;14.63;10.95;;;;;;;;;;6150731;23;20096;-77
2023/10/22 10:42:30;;;;;;;16.08;9.38;;;;;;;;;;6150869;23;20370;-78
2023/10/22 10:47:24;;;;;;;11.50;8.77;;;;;;;;;;6151250;23;20104;-78
2023/10/22 10:49:50;;;;;;;11.48;8.20;;;;;;;;;;6152537;23;20096;-79
2023/10/22 10:52:16;;;;;;;19.63;14.38;;;;;;;;;;6153128;23;20442;-79
2023/10/22 10:54:45;;;;;;;15.05;11.98;;;;;;;;;;6153369;23;20020;-79
2023/10/22 10:57:11;;;;;;;18.50;9.93;;;;;;;;;;6154329;23;20083;-77
2023/10/22 10:59:39;;;;;;;13.65;12.07;;;;;;;;;;6156835;23;20017;-79
2023/10/22 11:02:10;;;;;;;11.48;10.20;;;;;;;;;;6159583;23;20024;-79
2023/10/22 11:04:36;;;;;;;9.40;8.48;;;;;;;;;;6159933;23;20042;-79
2023/10/22 11:07:03;;;;;;;9.95;9.00;;;;;;;;;;6162037;23;20021;-80
2023/10/22 11:09:30;;;;;;;13.40;10.10;;;;;;;;;;6161042;23;20401;-79
2023/10/22 11:11:58;;;;;;;11.48;9.45;;;;;;;;;;6157018;23;20327;-78
2023/10/22 11:14:25;;;;;;;10.32;9.50;;;;;;;;;;6164855;23;20009;-77
2023/10/22 11:16:55;;;;;;;7.88;7.05;;;;;;;;;;6189746;23;20097;-76
2023/10/22 11:19:24;;;;;;;10.65;9.65;;;;;;;;;;6160517;23;20010;-78
2023/10/22 11:21:50;;;;;;;9.77;7.75;;;;;;;;;;6182422;23;20024;-78
2023/10/22 11:24:17;;;;;;;9.18;8.20;;;;;;;;;;6159174;23;20013;-77
2023/10/22 11:26:44;;;;;;;7.05;6.50;;;;;;;;;;6157530;23;20021;-78
2023/10/22 11:29:11;;;;;;;8.80;7.90;;;;;;;;;;6157143;23;20010;-78
2023/10/22 11:31:37;;;;;;;5.53;5.13;;;;;;;;;;6131766;23;20033;-79
2023/10/22 11:34:15;;;;;;;11.50;10.00;;;;;;;;;;6156212;23;20021;-79
2023/10/22 11:36:43;;;;;;;8.88;7.22;;;;;;;;;;6156748;23;20293;-77
2023/10/22 11:39:19;;;;;;;10.32;7.53;;;;;;;;;;6160208;23;20040;-78
2023/10/22 11:41:45;;;;;;;8.57;7.95;;;;;;;;;;6155484;23;20093;-78
2023/10/22 11:44:30;;;;;;;9.73;6.85;;;;;;;;;;6153210;23;20029;-76
2023/10/22 11:47:00;;;;;;;10.02;9.13;;;;;;;;;;6153086;23;20013;-78
2023/10/22 11:49:27;;;;;;;11.82;10.00;;;;;;;;;;6152832;23;20060;-78
2023/10/22 11:51:53;;;;;;;11.77;10.05;;;;;;;;;;6152372;23;20017;-80
2023/10/22 11:54:20;;;;;;;12.32;11.02;;;;;;;;;;6154135;23;20033;-78
2023/10/22 11:56:47;;;;;;;7.30;6.70;;;;;;;;;;6153704;23;20028;-78
2023/10/22 11:59:13;;;;;;;12.00;9.68;;;;;;;;;;6157236;23;20354;-77
2023/10/22 12:01:40;;;;;;;14.02;10.48;;;;;;;;;;6132527;23;20071;-77
2023/10/22 12:04:06;;;;;;;11.23;10.23;;;;;;;;;;6160130;23;20450;-77
2023/10/22 12:06:32;;;;;;;10.20;9.15;;;;;;;;;;6134014;23;20420;-76
2023/10/22 12:08:58;;;;;;;10.13;9.30;;;;;;;;;;6158226;23;20029;-78
2023/10/22 12:11:25;;;;;;;11.52;10.27;;;;;;;;;;6158787;23;20093;-76
2023/10/22 12:13:52;;;;;;;11.40;10.30;;;;;;;;;;6159144;23;20016;-76
2023/10/22 12:16:17;;;;;;;12.90;11.30;;;;;;;;;;6159815;23;20068;-76
2023/10/22 12:18:44;;;;;;;12.52;10.57;;;;;;;;;;6160395;23;20024;-78
2023/10/22 12:21:09;;;;;;;13.25;8.45;;;;;;;;;;6158768;23;20009;-77
2023/10/22 12:23:35;;;;;;;7.78;7.18;;;;;;;;;;6158312;23;20468;-77
2023/10/22 12:26:02;;;;;;;10.65;9.48;;;;;;;;;;6157676;23;20013;-77
2023/10/22 12:28:28;;;;;;;11.35;10.25;;;;;;;;;;6132322;23;20013;-76
2023/10/22 12:30:55;;;;;;;8.88;7.97;;;;;;;;;;6157457;23;20013;-77
2023/10/22 12:33:21;;;;;;;8.55;7.82;;;;;;;;;;6156663;23;20017;-76
2023/10/22 12:35:47;;;;;;;12.27;11.18;;;;;;;;;;6157567;23;20016;-76
2023/10/22 12:38:13;;;;;;;10.27;8.93;;;;;;;;;;6157214;23;20026;-76
2023/10/22 12:40:39;;;;;;;11.65;10.70;;;;;;;;;;6157014;23;20410;-77
2023/10/22 12:43:05;;;;;;;14.38;12.10;;;;;;;;;;6155180;23;20016;-76
2023/10/22 12:45:31;;;;;;;11.02;8.80;;;;;;;;;;6131003;23;20022;-76
2023/10/22 12:47:57;;;;;;;7.45;6.32;;;;;;;;;;6157235;23;20017;-77
2023/10/22 12:50:23;;;;;;;20.30;8.40;;;;;;;;;;6159915;23;20029;-78
2023/10/22 12:52:49;;;;;;;13.48;11.00;;;;;;;;;;6162208;23;20017;-77
2023/10/22 12:55:15;;;;;;;7.70;7.10;;;;;;;;;;6159154;23;20013;-77
2023/10/22 12:57:41;;;;;;;10.45;8.43;;;;;;;;;;6157632;23;20044;-78
2023/10/22 13:00:12;;;;;;;7.82;7.18;;;;;;;;;;6160904;23;20110;-77
2023/10/22 13:02:38;;;;;;;10.13;9.10;;;;;;;;;;6169110;23;20017;-78
2023/10/22 13:05:07;;;;;;;9.45;6.65;;;;;;;;;;6165963;23;20016;-76
2023/10/22 13:07:33;;;;;;;10.27;9.32;;;;;;;;;;6160914;23;20064;-76
2023/10/22 13:09:59;;;;;;;8.68;7.97;;;;;;;;;;6157006;23;20009;-77
2023/10/22 13:12:25;;;;;;;8.00;7.30;;;;;;;;;;6159062;23;20049;-78
2023/10/22 13:14:52;;;;;;;7.95;7.25;;;;;;;;;;6159383;23;20013;-77
2023/10/22 13:17:18;;;;;;;10.25;9.45;;;;;;;;;;6156205;23;20496;-78
2023/10/22 13:19:44;;;;;;;9.50;7.32;;;;;;;;;;6158578;23;20014;-78
2023/10/22 13:22:11;;;;;;;6.38;5.82;;;;;;;;;;6159368;23;20068;-78
2023/10/22 13:24:38;;;;;;;9.50;8.70;;;;;;;;;;6158854;23;20088;-79
2023/10/22 13:27:04;;;;;;;10.07;8.23;;;;;;;;;;6155858;23;20017;-77
2023/10/22 13:29:30;;;;;;;11.45;10.32;;;;;;;;;;6157429;23;20014;-77
2023/10/22 13:31:57;;;;;;;10.02;6.43;;;;;;;;;;6158076;23;20017;-76
2023/10/22 13:34:23;;;;;;;12.07;8.48;;;;;;;;;;6108013;23;20009;-79
2023/10/22 13:36:49;;;;;;;10.18;9.10;;;;;;;;;;6157510;23;20113;-78
2023/10/22 13:39:16;;;;;;;12.15;11.05;;;;;;;;;;6158136;23;20009;-77
2023/10/22 13:41:42;;;;;;;7.75;7.15;;;;;;;;;;6156448;23;20172;-78
2023/10/22 13:44:10;;;;;;;9.43;8.40;;;;;;;;;;6134234;23;20009;-77
2023/10/22 13:46:36;;;;;;;10.65;8.88;;;;;;;;;;6159454;23;20020;-78
2023/10/22 13:49:02;;;;;;;7.07;6.40;;;;;;;;;;6161064;23;20020;-76
2023/10/22 13:51:28;;;;;;;7.43;6.82;;;;;;;;;;6162779;23;20013;-77
2023/10/22 13:53:54;;;;;;;13.75;10.27;;;;;;;;;;6156214;23;20101;-76
2023/10/22 13:56:20;;;;;;;8.75;8.00;;;;;;;;;;6162321;23;20073;-77
2023/10/22 13:58:46;;;;;;;6.15;5.65;;;;;;;;;;6161207;23;20092;-79
2023/10/22 14:01:12;;;;;;;13.65;12.10;;;;;;;;;;6162017;23;20355;-77
2023/10/22 14:03:38;;;;;;;10.18;9.05;;;;;;;;;;6161056;23;20040;-78
2023/10/22 14:06:04;;;;;;;10.13;9.05;;;;;;;;;;6174378;23;20060;-77
2023/10/22 14:08:31;;;;;;;10.82;9.40;;;;;;;;;;6137493;23;20397;-79
2023/10/22 14:10:57;;;;;;;13.90;11.55;;;;;;;;;;6162455;23;20017;-79
2023/10/22 14:13:23;;;;;;;11.25;10.10;;;;;;;;;;6135584;23;20056;-78
2023/10/22 14:16:07;;;;;;;12.25;8.38;;;;;;;;;;6157803;23;20017;-78
2023/10/22 14:18:33;;;;;;;8.52;7.30;;;;;;;;;;6158291;23;20442;-78
2023/10/22 14:21:08;;;;;;;13.50;10.65;;;;;;;;;;6159433;23;20017;-80
2023/10/22 14:23:35;;;;;;;8.15;7.45;;;;;;;;;;6158617;23;20010;-77
2023/10/22 14:26:01;;;;;;;10.75;9.68;;;;;;;;;;6158414;23;20010;-78
2023/10/22 14:28:27;;;;;;;8.85;8.00;;;;;;;;;;6157387;23;20009;-75
2023/10/22 14:30:53;;;;;;;9.70;8.80;;;;;;;;;;6154051;23;20010;-74
2023/10/22 14:33:21;;;;;;;9.95;8.93;;;;;;;;;;6154990;23;20010;-74